createdAt,value
2023-02-08T00:00:18.695Z,103921.81
2023-02-08T00:02:47.786Z,103920.06
2023-02-08T00:05:20.160Z,103897.53
2023-02-08T00:10:31.768Z,103894.88
2023-02-08T00:13:00.112Z,103912.72
2023-02-08T00:15:30.158Z,103909.31
2023-02-08T00:17:58.333Z,103910.88
2023-02-08T00:20:27.617Z,103914.31
2023-02-08T00:22:58.880Z,103916.06
2023-02-08T00:25:37.488Z,103895.97
2023-02-08T00:28:09.668Z,103897.56
2023-02-08T00:30:37.820Z,103889.28
2023-02-08T00:33:08.128Z,103883.34
2023-02-08T00:35:36.615Z,103885.38
2023-02-08T00:38:08.259Z,103877.97
2023-02-08T00:40:36.431Z,103872.16
2023-02-08T00:43:11.884Z,103875.03
2023-02-08T00:45:45.168Z,103878.69
2023-02-08T00:48:15.414Z,103866.28
2023-02-08T00:50:43.674Z,103878.53
2023-02-08T00:53:12.886Z,103887.13
2023-02-08T00:55:41.355Z,103882.53
2023-02-08T00:58:09.673Z,103881.09
2023-02-08T01:00:41.894Z,103896.13
2023-02-08T01:03:10.269Z,103871.25
2023-02-08T01:05:39.355Z,103870.03
2023-02-08T01:08:08.496Z,103886.03
2023-02-08T01:10:36.517Z,103866.69
2023-02-08T01:13:05.053Z,103880.13
2023-02-08T01:15:34.195Z,103852.44
2023-02-08T01:18:08.723Z,103874.25
2023-02-08T01:20:39.322Z,103874.38
2023-02-08T01:23:08.523Z,103865.69
2023-02-08T01:25:36.582Z,103878.75
2023-02-08T01:28:06.017Z,103864.94
2023-02-08T01:30:34.562Z,103869.94
2023-02-08T01:33:02.599Z,103881.91
2023-02-08T01:35:34.543Z,103873.13
2023-02-08T01:38:02.814Z,103863.25
2023-02-08T01:40:32.223Z,103865.91
2023-02-08T01:43:00.381Z,103871.34
2023-02-08T01:45:33.599Z,103868.19
2023-02-08T01:48:09.812Z,103879.44
2023-02-08T01:50:46.608Z,103852.44
2023-02-08T01:53:15.344Z,103853.69
2023-02-08T01:55:48.321Z,103855.72
2023-02-08T01:58:18.690Z,103847.47
2023-02-08T02:00:47.957Z,103845.66
2023-02-08T02:03:17.081Z,103859.16
2023-02-08T02:05:50.665Z,103845.06
2023-02-08T02:08:19.466Z,103854.69
2023-02-08T02:10:49.743Z,103853.09
2023-02-08T02:13:21.120Z,103874.88
2023-02-08T02:15:51.492Z,103869.28
2023-02-08T02:18:25.773Z,103862.22
2023-02-08T02:21:19.139Z,103869.09
2023-02-08T02:24:31.667Z,103854.16
2023-02-08T02:27:28.750Z,103861.88
2023-02-08T02:30:36.633Z,103870.28
2023-02-08T02:33:35.893Z,103860.44
2023-02-08T02:36:17.956Z,103847.28
2023-02-08T02:39:02.725Z,103859.28
2023-02-08T02:42:02.096Z,103852.81
2023-02-08T02:44:40.473Z,103856.31
2023-02-08T02:47:16.287Z,103852.84
2023-02-08T02:50:02.800Z,103839.31
2023-02-08T02:52:44.166Z,103831.94
2023-02-08T02:55:18.290Z,103818.94
2023-02-08T02:58:07.065Z,103832.44
2023-02-08T03:00:53.865Z,103847.84
2023-02-08T03:03:31.678Z,103846.84
2023-02-08T03:06:04.703Z,103843.81
2023-02-08T03:09:02.531Z,103838.97
2023-02-08T03:11:37.776Z,103835.59
2023-02-08T03:14:28.222Z,103839.75
2023-02-08T03:17:27.747Z,103827.25
2023-02-08T03:20:04.912Z,103827.38
2023-02-08T03:25:38.177Z,103831.56
2023-02-08T03:28:17.929Z,103818.72
2023-02-08T03:30:53.338Z,103814.22
2023-02-08T03:33:30.402Z,103834.03
2023-02-08T03:36:07.293Z,103812.00
2023-02-08T03:38:39.253Z,103827.94
2023-02-08T03:41:26.473Z,103833.56
2023-02-08T03:44:01.872Z,103820.88
2023-02-08T03:46:34.552Z,103827.38
2023-02-08T03:49:07.081Z,103836.16
2023-02-08T03:51:39.489Z,103807.38
2023-02-08T03:54:14.683Z,103825.94
2023-02-08T03:56:54.246Z,103827.94
2023-02-08T03:59:33.777Z,103818.72
2023-02-08T04:02:05.479Z,103817.16
2023-02-08T04:04:36.757Z,103814.56
2023-02-08T04:07:05.616Z,103809.41
2023-02-08T04:09:34.284Z,103833.13
2023-02-08T04:12:04.121Z,103794.00
2023-02-08T04:14:32.907Z,103810.88
2023-02-08T04:17:03.219Z,103831.41
2023-02-08T04:19:32.101Z,103834.47
2023-02-08T04:22:01.357Z,103815.00
2023-02-08T04:24:30.536Z,103812.19
2023-02-08T04:26:58.996Z,103815.03
2023-02-08T04:29:29.536Z,103814.22
2023-02-08T04:32:01.391Z,103817.81
2023-02-08T04:34:30.461Z,103820.50
2023-02-08T04:36:59.161Z,103782.50
2023-02-08T04:39:28.968Z,103810.22
2023-02-08T04:41:58.585Z,103802.75
2023-02-08T04:44:28.752Z,103810.97
2023-02-08T04:46:57.045Z,103778.53
2023-02-08T04:49:25.271Z,103794.81
2023-02-08T04:51:53.886Z,103804.81
2023-02-08T04:54:22.976Z,103814.00
2023-02-08T04:56:51.255Z,103815.28
2023-02-08T04:59:20.197Z,103829.97
2023-02-08T05:01:55.961Z,103795.25
2023-02-08T05:04:26.590Z,103818.31
2023-02-08T05:06:55.400Z,103795.03
2023-02-08T05:09:23.660Z,103820.06
2023-02-08T05:11:52.204Z,103819.44
2023-02-08T05:14:20.615Z,103819.09
2023-02-08T05:16:48.765Z,103800.06
2023-02-08T05:19:21.284Z,103786.63
2023-02-08T05:21:51.231Z,103802.09
2023-02-08T05:24:20.373Z,103793.88
2023-02-08T05:26:48.858Z,103793.44
2023-02-08T05:29:16.820Z,103790.88
2023-02-08T05:31:47.037Z,103800.31
2023-02-08T05:34:17.631Z,103793.56
2023-02-08T05:36:47.199Z,103815.50
2023-02-08T05:39:15.204Z,103796.06
2023-02-08T05:41:43.671Z,103798.94
2023-02-08T05:44:13.884Z,103808.16
2023-02-08T05:46:43.381Z,103820.06
2023-02-08T05:49:11.456Z,103814.94
2023-02-08T05:51:39.682Z,103803.00
2023-02-08T05:54:10.515Z,103787.81
2023-02-08T05:56:41.560Z,103803.69
2023-02-08T05:59:11.565Z,103797.72
2023-02-08T06:02:01.146Z,103806.25
2023-02-08T06:04:36.766Z,103810.88
2023-02-08T06:07:06.535Z,103807.28
2023-02-08T06:09:36.070Z,103807.72
2023-02-08T06:12:03.923Z,103810.19
2023-02-08T06:14:32.021Z,103798.69
2023-02-08T06:17:01.077Z,103810.19
2023-02-08T06:19:29.346Z,103809.81
2023-02-08T06:21:57.874Z,103805.47
2023-02-08T06:24:26.117Z,103807.03
2023-02-08T06:26:55.410Z,103802.75
2023-02-08T06:29:24.456Z,103807.66
2023-02-08T06:31:52.441Z,103809.69
2023-02-08T06:34:22.073Z,103812.88
2023-02-08T06:36:52.053Z,103801.84
2023-02-08T06:39:22.161Z,103815.19
2023-02-08T06:41:57.596Z,103798.03
2023-02-08T06:44:27.624Z,103802.50
2023-02-08T06:46:56.034Z,103802.88
2023-02-08T06:49:24.008Z,103800.19
2023-02-08T06:51:52.131Z,103797.09
2023-02-08T06:54:22.087Z,103808.66
2023-02-08T06:56:50.236Z,103792.66
2023-02-08T06:59:25.190Z,103804.44
2023-02-08T07:01:53.197Z,103814.22
2023-02-08T07:04:21.665Z,103813.31
2023-02-08T07:06:50.067Z,103805.22
2023-02-08T07:09:18.763Z,103807.06
2023-02-08T07:11:46.868Z,103807.19
2023-02-08T07:14:16.645Z,103812.78
2023-02-08T07:16:46.890Z,103807.72
2023-02-08T07:19:15.002Z,103796.81
2023-02-08T07:21:43.837Z,103792.22
2023-02-08T07:24:11.756Z,103786.25
2023-02-08T07:26:39.572Z,103786.59
2023-02-08T07:29:07.509Z,103793.56
2023-02-08T07:31:35.535Z,103792.19
2023-02-08T07:34:05.832Z,103786.13
2023-02-08T07:36:35.800Z,103795.28
2023-02-08T07:39:10.588Z,103787.50
2023-02-08T07:41:39.485Z,103778.50
2023-02-08T07:44:10.495Z,103787.38
2023-02-08T07:46:40.669Z,103791.72
2023-02-08T07:49:12.522Z,103787.78
2023-02-08T07:51:40.636Z,103792.41
2023-02-08T07:54:09.110Z,103783.41
2023-02-08T07:56:37.103Z,103785.84
2023-02-08T07:59:05.423Z,103787.94
2023-02-08T08:01:33.709Z,103787.69
2023-02-08T08:04:01.687Z,103779.63
2023-02-08T08:06:32.731Z,103779.84
2023-02-08T08:09:15.949Z,103772.19
2023-02-08T08:11:43.824Z,103774.28
2023-02-08T08:14:11.731Z,103771.09
2023-02-08T08:16:40.536Z,103768.59
2023-02-08T08:19:08.478Z,103778.66
2023-02-08T08:21:38.754Z,103775.19
2023-02-08T08:24:08.134Z,103768.59
2023-02-08T08:26:40.240Z,103772.78
2023-02-08T08:29:08.703Z,103761.06
2023-02-08T08:31:38.757Z,103770.81
2023-02-08T08:34:07.741Z,103774.16
2023-02-08T08:36:36.451Z,103772.94
2023-02-08T08:39:06.039Z,103778.13
2023-02-08T08:41:36.072Z,103774.25
2023-02-08T08:44:06.313Z,103769.63
2023-02-08T08:46:34.283Z,103772.84
2023-02-08T08:49:03.283Z,103787.59
2023-02-08T08:51:35.259Z,103788.28
2023-02-08T08:54:03.391Z,103787.94
2023-02-08T08:56:36.464Z,103801.19
2023-02-08T08:59:04.837Z,103806.19
2023-02-08T09:01:34.592Z,103815.25
2023-02-08T09:04:02.765Z,103824.91
2023-02-08T09:06:31.888Z,103837.69
2023-02-08T09:09:00.096Z,103841.72
2023-02-08T09:11:33.074Z,103838.78
2023-02-08T09:14:16.454Z,103833.31
2023-02-08T09:16:48.720Z,103865.34
2023-02-08T09:19:18.429Z,103881.16
2023-02-08T09:21:47.251Z,103879.00
2023-02-08T09:24:16.059Z,103879.53
2023-02-08T09:26:54.414Z,103861.72
2023-02-08T09:29:25.262Z,103876.16
2023-02-08T09:31:59.959Z,103910.13
2023-02-08T09:34:29.389Z,103896.44
2023-02-08T09:36:58.094Z,103906.28
2023-02-08T09:39:29.605Z,103921.63
2023-02-08T09:42:24.936Z,103914.97
2023-02-08T09:45:06.273Z,103904.72
2023-02-08T09:47:36.355Z,103852.69
2023-02-08T09:50:14.782Z,103754.31
2023-02-08T09:52:47.647Z,103690.78
2023-02-08T09:55:30.185Z,103538.81
2023-02-08T09:58:01.106Z,103488.88
2023-02-08T10:00:36.067Z,103403.06
2023-02-08T10:03:07.106Z,103344.72
2023-02-08T10:05:37.539Z,103331.09
2023-02-08T10:08:10.746Z,103312.47
2023-02-08T10:10:46.680Z,103302.13
2023-02-08T10:13:41.053Z,103322.31
2023-02-08T10:16:22.068Z,103334.94
2023-02-08T10:18:57.254Z,103346.41
2023-02-08T10:21:41.249Z,103377.06
2023-02-08T10:24:35.686Z,103372.06
2023-02-08T10:27:12.201Z,103367.75
2023-02-08T10:30:00.976Z,103396.44
2023-02-08T10:32:59.804Z,103399.03
2023-02-08T10:35:37.128Z,103379.59
2023-02-08T10:38:29.715Z,103279.19
2023-02-08T10:41:04.784Z,103152.34
2023-02-08T10:43:41.971Z,103018.56
2023-02-08T10:46:17.974Z,103018.22
2023-02-08T10:49:00.030Z,103129.38
2023-02-08T10:51:29.982Z,103091.38
2023-02-08T10:54:00.063Z,102565.00
2023-02-08T10:56:44.326Z,102436.78
2023-02-08T10:59:20.321Z,102365.63
2023-02-08T11:01:49.898Z,102336.66
2023-02-08T11:04:20.715Z,102273.56
2023-02-08T11:06:50.592Z,102324.50
2023-02-08T11:09:24.475Z,102312.13
2023-02-08T11:11:53.787Z,102275.16
2023-02-08T11:14:35.034Z,102335.88
2023-02-08T11:17:26.033Z,102236.53
2023-02-08T11:19:55.726Z,102024.47
2023-02-08T11:22:27.791Z,102067.69
2023-02-08T11:25:01.698Z,102036.94
2023-02-08T11:27:35.455Z,101925.50
2023-02-08T11:30:21.020Z,101951.09
2023-02-08T11:32:51.268Z,101968.38
2023-02-08T11:35:24.512Z,101917.31
2023-02-08T11:37:54.590Z,101807.19
2023-02-08T11:40:26.884Z,101776.03
2023-02-08T11:42:55.905Z,101699.59
2023-02-08T11:45:26.911Z,101601.75
2023-02-08T11:47:55.530Z,101445.59
2023-02-08T11:50:32.725Z,101616.16
2023-02-08T11:53:02.540Z,101413.84
2023-02-08T11:55:33.178Z,101434.34
2023-02-08T11:58:05.408Z,101325.69
2023-02-08T12:00:35.434Z,101264.75
2023-02-08T12:03:07.494Z,101425.41
2023-02-08T12:05:47.247Z,101357.22
2023-02-08T12:08:25.462Z,101462.75
2023-02-08T12:11:09.480Z,101476.38
2023-02-08T12:13:50.646Z,101539.34
2023-02-08T12:16:42.888Z,101447.69
2023-02-08T12:19:45.890Z,101415.56
2023-02-08T12:22:24.970Z,101312.00
2023-02-08T12:25:04.681Z,101258.53
2023-02-08T12:27:44.238Z,101194.88
2023-02-08T12:30:26.953Z,101262.50
2023-02-08T12:33:22.110Z,101203.50
2023-02-08T12:36:05.425Z,101259.56
2023-02-08T12:39:26.037Z,101298.56
2023-02-08T12:42:17.074Z,101127.50
2023-02-08T12:45:17.743Z,101169.72
2023-02-08T12:48:06.575Z,101074.03
2023-02-08T12:50:43.447Z,101131.38
2023-02-08T12:53:21.062Z,101115.16
2023-02-08T12:55:53.135Z,101042.25
2023-02-08T12:58:30.705Z,101022.41
2023-02-08T13:01:07.367Z,101182.56
2023-02-08T13:03:44.753Z,101117.22
2023-02-08T13:06:19.479Z,101073.81
2023-02-08T13:08:54.211Z,100966.34
2023-02-08T13:11:29.131Z,100874.97
2023-02-08T13:14:03.855Z,100995.38
2023-02-08T13:16:36.847Z,100968.38
2023-02-08T13:19:22.677Z,101127.03
2023-02-08T13:21:52.899Z,100927.28
2023-02-08T13:24:29.154Z,101016.22
2023-02-08T13:26:58.717Z,101015.47
2023-02-08T13:29:29.452Z,101031.38
2023-02-08T13:32:01.667Z,100994.72
2023-02-08T13:34:37.476Z,101091.03
2023-02-08T13:37:16.657Z,100840.59
2023-02-08T13:40:04.234Z,100718.19
2023-02-08T13:42:42.492Z,100671.16
2023-02-08T13:45:26.315Z,100879.53
2023-02-08T13:48:12.563Z,100837.47
2023-02-08T13:50:48.762Z,100767.56
2023-02-08T13:53:53.922Z,100702.81
2023-02-08T13:56:41.469Z,100714.78
2023-02-08T13:59:41.347Z,100697.88
2023-02-08T14:02:25.095Z,100712.38
2023-02-08T14:04:54.955Z,100769.91
2023-02-08T14:07:36.389Z,100707.75
2023-02-08T14:10:20.076Z,100709.63
2023-02-08T14:12:57.938Z,100784.94
2023-02-08T14:15:38.188Z,100766.75
2023-02-08T14:18:22.157Z,100721.25
2023-02-08T14:21:02.809Z,100664.25
2023-02-08T14:23:32.645Z,100655.50
2023-02-08T14:26:09.882Z,100681.22
2023-02-08T14:28:42.492Z,100628.91
2023-02-08T14:31:22.249Z,100617.66
2023-02-08T14:33:59.455Z,100616.59
2023-02-08T14:36:34.915Z,100775.56
2023-02-08T14:39:09.835Z,100600.81
2023-02-08T14:41:49.837Z,100583.41
2023-02-08T14:44:54.354Z,100477.34
2023-02-08T14:47:58.204Z,100515.81
2023-02-08T14:50:33.474Z,100562.88
2023-02-08T14:53:15.754Z,100631.03
2023-02-08T14:55:50.326Z,100503.34
2023-02-08T14:58:28.788Z,100593.81
2023-02-08T15:01:03.163Z,100494.22
2023-02-08T15:03:36.272Z,100478.53
2023-02-08T15:06:50.221Z,100557.72
2023-02-08T15:09:26.780Z,100659.53
2023-02-08T15:12:01.673Z,100635.31
2023-02-08T15:14:32.512Z,100603.84
2023-02-08T15:17:01.209Z,100544.53
2023-02-08T15:19:35.505Z,100441.22
2023-02-08T15:22:21.408Z,100432.75
2023-02-08T15:24:58.000Z,100490.56
2023-02-08T15:27:29.207Z,100560.00
2023-02-08T15:29:57.558Z,100568.13
2023-02-08T15:32:27.712Z,100539.97
2023-02-08T15:34:59.863Z,100591.53
2023-02-08T15:37:31.663Z,100551.56
2023-02-08T15:40:01.384Z,100555.38
2023-02-08T15:42:34.469Z,100531.47
2023-02-08T15:45:04.536Z,100591.91
2023-02-08T15:47:36.489Z,100558.13
2023-02-08T15:50:09.624Z,100559.16
2023-02-08T15:52:38.483Z,100530.09
2023-02-08T15:55:08.604Z,100506.28
2023-02-08T15:57:44.065Z,100582.72
2023-02-08T16:00:20.264Z,100615.81
2023-02-08T16:02:53.509Z,100707.53
2023-02-08T16:05:26.289Z,100665.53
2023-02-08T16:07:57.166Z,100677.44
2023-02-08T16:10:33.647Z,100743.03
2023-02-08T16:13:05.452Z,100743.38
2023-02-08T16:15:39.645Z,100875.34
2023-02-08T16:18:27.841Z,100997.06
2023-02-08T16:21:00.788Z,101249.50
2023-02-08T16:23:31.026Z,101318.50
2023-02-08T16:26:11.091Z,101443.31
2023-02-08T16:28:40.847Z,101649.94
2023-02-08T16:31:09.426Z,101869.47
2023-02-08T16:33:39.662Z,101999.03
2023-02-08T16:36:22.486Z,102127.03
2023-02-08T16:39:22.834Z,102281.25
2023-02-08T16:42:15.409Z,102347.19
2023-02-08T16:45:03.841Z,102412.94
2023-02-08T16:47:38.005Z,102461.75
2023-02-08T16:50:06.255Z,102506.84
2023-02-08T16:52:35.736Z,102519.94
2023-02-08T16:55:04.821Z,102516.44
2023-02-08T16:57:44.009Z,102583.44
2023-02-08T17:00:23.937Z,102671.47
2023-02-08T17:02:52.689Z,102741.25
2023-02-08T17:05:22.862Z,102806.19
2023-02-08T17:07:53.210Z,102824.47
2023-02-08T17:10:26.063Z,102854.38
2023-02-08T17:13:07.041Z,102876.19
2023-02-08T17:15:46.536Z,102951.69
2023-02-08T17:18:15.135Z,103051.88
2023-02-08T17:20:43.278Z,103110.59
2023-02-08T17:23:15.384Z,103163.41
2023-02-08T17:25:46.767Z,103180.41
2023-02-08T17:28:18.313Z,103192.50
2023-02-08T17:30:50.803Z,103250.69
2023-02-08T17:33:23.775Z,103338.84
2023-02-08T17:35:53.837Z,103362.03
2023-02-08T17:38:23.135Z,103341.88
2023-02-08T17:40:51.009Z,103256.66
2023-02-08T17:43:19.950Z,103194.00
2023-02-08T17:45:48.101Z,103113.66
2023-02-08T17:48:16.251Z,103063.53
2023-02-08T17:50:51.091Z,103032.13
2023-02-08T17:53:19.726Z,103018.53
2023-02-08T17:55:48.969Z,103014.63
2023-02-08T17:58:17.621Z,103013.66
2023-02-08T18:00:50.734Z,102997.03
2023-02-08T18:03:18.597Z,102989.22
2023-02-08T18:05:47.476Z,102981.00
2023-02-08T18:08:15.330Z,102985.78
2023-02-08T18:10:47.283Z,102978.78
2023-02-08T18:13:17.233Z,102969.00
2023-02-08T18:15:48.098Z,102954.06
2023-02-08T18:18:16.511Z,102932.34
2023-02-08T18:20:44.968Z,102891.38
2023-02-08T18:23:14.875Z,102826.66
2023-02-08T18:25:43.222Z,102805.28
2023-02-08T18:28:15.191Z,102806.41
2023-02-08T18:30:44.989Z,102799.59
2023-02-08T18:33:15.328Z,102801.94
2023-02-08T18:35:49.296Z,102786.50
2023-02-08T18:38:17.717Z,102798.63
2023-02-08T18:40:45.699Z,102785.16
2023-02-08T18:43:13.814Z,102768.06
2023-02-08T18:45:42.187Z,102762.75
2023-02-08T18:48:11.625Z,102745.69
2023-02-08T18:50:39.878Z,102745.72
2023-02-08T18:53:09.182Z,102737.25
2023-02-08T18:55:37.148Z,102734.13
2023-02-08T18:58:05.018Z,102714.84
2023-02-08T19:00:34.899Z,102675.94
2023-02-08T19:03:02.822Z,102702.84
2023-02-08T19:05:32.380Z,102695.22
2023-02-08T19:08:01.361Z,102689.44
2023-02-08T19:10:29.409Z,102692.19
2023-02-08T19:12:57.443Z,102705.00
2023-02-08T19:15:25.479Z,102703.56
2023-02-08T19:17:54.279Z,102693.34
2023-02-08T19:20:22.110Z,102697.81
2023-02-08T19:22:51.420Z,102699.09
2023-02-08T19:25:22.081Z,102686.09
2023-02-08T19:27:53.792Z,102676.72
2023-02-08T19:30:22.292Z,102690.25
2023-02-08T19:32:51.442Z,102694.56
2023-02-08T19:35:25.297Z,102686.78
2023-02-08T19:37:54.700Z,102688.09
2023-02-08T19:40:24.256Z,102683.78
2023-02-08T19:43:00.497Z,102703.13
2023-02-08T19:45:31.985Z,102701.06
2023-02-08T19:48:00.212Z,102689.69
2023-02-08T19:50:28.162Z,102719.34
2023-02-08T19:56:01.825Z,102762.31
2023-02-08T19:58:30.849Z,102824.16
2023-02-08T20:00:59.418Z,102832.47
2023-02-08T20:03:27.505Z,102835.53
2023-02-08T20:05:56.528Z,102831.50
2023-02-08T20:08:27.376Z,102855.56
2023-02-08T20:10:56.240Z,102859.81
2023-02-08T20:13:24.874Z,102854.53
2023-02-08T20:15:59.705Z,102855.97
2023-02-08T20:18:27.955Z,102862.47
2023-02-08T20:21:03.664Z,102919.53
2023-02-08T20:23:33.314Z,102936.66
2023-02-08T20:26:23.564Z,102951.63
2023-02-08T20:28:54.285Z,102971.00
2023-02-08T20:31:24.344Z,102966.72
2023-02-08T20:33:55.313Z,102968.41
2023-02-08T20:36:24.724Z,102979.16
2023-02-08T20:38:55.914Z,102979.84
2023-02-08T20:41:26.012Z,102979.06
2023-02-08T20:43:55.981Z,102966.06
2023-02-08T20:46:26.888Z,102963.06
2023-02-08T20:48:57.493Z,102973.16
2023-02-08T20:51:27.214Z,102967.09
2023-02-08T20:53:59.828Z,102973.13
2023-02-08T20:56:31.119Z,102973.34
2023-02-08T20:59:02.970Z,102987.03
2023-02-08T21:01:33.891Z,102998.88
2023-02-08T21:04:02.501Z,102985.09
2023-02-08T21:06:32.803Z,102988.31
2023-02-08T21:09:06.152Z,102991.84
2023-02-08T21:11:35.253Z,102984.72
2023-02-08T21:14:05.178Z,102992.28
2023-02-08T21:16:34.580Z,102997.63
2023-02-08T21:19:02.522Z,102985.63
2023-02-08T21:21:32.942Z,102975.16
2023-02-08T21:24:03.391Z,102970.47
2023-02-08T21:26:31.913Z,102968.09
2023-02-08T21:29:00.413Z,102950.25
2023-02-08T21:31:28.523Z,102942.63
2023-02-08T21:33:56.438Z,102906.38
2023-02-08T21:36:25.371Z,102913.00
2023-02-08T21:38:53.447Z,102903.81
2023-02-08T21:41:24.990Z,102898.50
2023-02-08T21:43:55.901Z,102887.31
2023-02-08T21:46:25.676Z,102871.63
2023-02-08T21:49:11.251Z,102871.63
2023-02-08T21:51:57.217Z,102863.47
2023-02-08T21:54:44.072Z,102862.88
2023-02-08T21:57:16.906Z,102826.88
2023-02-08T21:59:45.085Z,102840.44
2023-02-08T22:02:15.905Z,102842.34
2023-02-08T22:05:01.570Z,102840.06
2023-02-08T22:07:32.176Z,102828.06
2023-02-08T22:10:01.301Z,102813.41
2023-02-08T22:12:30.711Z,102805.00
2023-02-08T22:14:58.806Z,102791.75
2023-02-08T22:17:28.902Z,102774.47
2023-02-08T22:19:56.966Z,102767.44
2023-02-08T22:22:25.093Z,102763.88
2023-02-08T22:24:53.131Z,102751.09
2023-02-08T22:27:21.248Z,102764.38
2023-02-08T22:29:53.640Z,102757.53
2023-02-08T22:32:22.008Z,102757.84
2023-02-08T22:34:50.383Z,102762.50
2023-02-08T22:37:21.741Z,102755.47
2023-02-08T22:39:49.792Z,102782.25
2023-02-08T22:42:17.853Z,102758.66
2023-02-08T22:44:50.433Z,102777.25
2023-02-08T22:47:21.582Z,102756.59
2023-02-08T22:49:49.770Z,102719.81
2023-02-08T22:52:21.771Z,102689.03
2023-02-08T22:54:56.178Z,102671.22
2023-02-08T22:57:24.362Z,102649.63
2023-02-08T22:59:52.541Z,102647.09
2023-02-08T23:02:25.958Z,102631.44
2023-02-08T23:04:54.525Z,102643.56
2023-02-08T23:07:29.691Z,102613.53
2023-02-08T23:09:57.802Z,102613.72
2023-02-08T23:12:28.972Z,102607.13
2023-02-08T23:14:56.938Z,102613.25
2023-02-08T23:17:26.421Z,102597.91
2023-02-08T23:19:55.642Z,102608.88
2023-02-08T23:22:23.569Z,102607.13
2023-02-08T23:24:51.438Z,102609.69
2023-02-08T23:27:19.296Z,102597.53
2023-02-08T23:29:47.127Z,102596.28
2023-02-08T23:32:17.313Z,102589.84
2023-02-08T23:34:47.630Z,102588.00
2023-02-08T23:37:15.668Z,102597.88
2023-02-08T23:39:48.319Z,102590.09
2023-02-08T23:42:26.370Z,102598.25
2023-02-08T23:44:54.429Z,102587.97
2023-02-08T23:47:23.127Z,102593.69
2023-02-08T23:49:53.360Z,102586.44
2023-02-08T23:52:21.624Z,102573.28
2023-02-08T23:54:49.713Z,102573.53
2023-02-08T23:57:17.740Z,102588.38
2023-02-08T23:59:46.759Z,102579.41
